Terminal Aerodrome Forecast
Issued by NWS Louisville, KY

Home | Current Version | Previous Version | Text Only | Print | Product List | Glossary On
Versions: 1 2 3 4 5 6 7 8 9 10 11 12 13
000
FTUS43 KLMK 211100
TAFLEX
TAF
KLEX 211120Z 2112/2212 00000KT P6SM SKC
     FM211500 09006KT P6SM SKC
     FM220400 12005KT P6SM SCT040
     FM220700 16006KT P6SM BKN040=

USA.gov is the U.S. government's official web portal to all federal, state and local government web resources and services.